Time;durP1;ratioP1;P1;durP2;ratioP2;P2;SDS_P1;SDS_P2;PMS_P1;PMS_P2;Temp;Humidity;BMP_temperature;BMP_pressure;BME280_temperature;BME280_humidity;BME280_pressure;Samples;Min_cycle;Max_cycle;Signal;HPM_P1;HPM_P2
2021/06/29 00:00:21;;;;;;;;;2.00;2.00;;;;;18.47;58.96;100922.50;4864635;29;45350;-47
2021/06/29 00:02:47;;;;;;;;;1.50;1.50;;;;;18.44;59.05;100917.31;4865123;29;46287;-52
2021/06/29 00:05:13;;;;;;;;;1.00;1.00;;;;;18.39;58.87;100914.88;4865064;29;45388;-49
2021/06/29 00:07:38;;;;;;;;;2.00;2.00;;;;;18.41;58.90;100914.81;4864892;29;45377;-49
2021/06/29 00:10:07;;;;;;;;;1.25;1.25;;;;;18.37;59.08;100914.06;4863730;29;45389;-49
2021/06/29 00:12:33;;;;;;;;;1.00;1.00;;;;;18.34;59.03;100908.91;4865926;29;45995;-49
2021/06/29 00:14:58;;;;;;;;;3.75;1.00;;;;;18.34;58.98;100907.09;4867903;29;45317;-50
2021/06/29 00:17:24;;;;;;;;;3.00;1.50;;;;;18.36;58.99;100907.00;4868283;29;45266;-50
2021/06/29 00:19:49;;;;;;;;;2.25;2.25;;;;;18.34;58.79;100907.09;4867844;29;45595;-48
2021/06/29 00:22:14;;;;;;;;;1.25;1.25;;;;;18.33;59.28;100900.03;4868022;29;45963;-48
2021/06/29 00:24:40;;;;;;;;;1.25;1.25;;;;;18.32;59.21;100900.09;4867694;29;45437;-47
2021/06/29 00:27:05;;;;;;;;;2.00;2.00;;;;;18.31;59.23;100898.38;4873285;29;45275;-49
2021/06/29 00:29:31;;;;;;;;;3.50;3.25;;;;;18.31;59.14;100899.25;4867735;29;45411;-49
2021/06/29 00:31:56;;;;;;;;;5.25;3.00;;;;;18.32;59.24;100900.09;4867781;29;47095;-50
2021/06/29 00:34:21;;;;;;;;;3.75;2.00;;;;;18.32;58.86;100897.44;4867728;29;45439;-50
2021/06/29 00:36:47;;;;;;;;;1.75;1.75;;;;;18.31;59.04;100896.59;4868218;29;45432;-47
2021/06/29 00:39:12;;;;;;;;;2.00;2.00;;;;;18.32;58.97;100895.63;4867552;29;45245;-51
2021/06/29 00:41:37;;;;;;;;;2.00;1.25;;;;;18.34;59.21;100895.59;4867522;29;46988;-48
2021/06/29 00:44:03;;;;;;;;;2.50;2.50;;;;;18.33;58.95;100897.38;4867567;29;45520;-48
2021/06/29 00:46:29;;;;;;;;;3.00;3.00;;;;;18.32;59.39;100897.44;4882220;29;45334;-49
2021/06/29 00:48:54;;;;;;;;;3.00;2.75;;;;;18.32;59.33;100895.63;4866343;29;45783;-48
2021/06/29 00:51:20;;;;;;;;;3.00;1.50;;;;;18.31;59.15;100885.06;4867566;29;45322;-48
2021/06/29 00:53:47;;;;;;;;;3.25;3.00;;;;;18.32;59.27;100882.34;4867418;29;45613;-47
2021/06/29 00:56:15;;;;;;;;;1.50;1.50;;;;;18.31;59.21;100880.63;4867735;29;45223;-49
2021/06/29 00:58:42;;;;;;;;;2.00;2.00;;;;;18.34;59.48;100884.94;4867287;29;45355;-47
2021/06/29 01:01:08;;;;;;;;;3.25;3.00;;;;;18.33;59.09;100878.75;4865925;29;46843;-49
2021/06/29 01:03:34;;;;;;;;;5.00;3.75;;;;;18.33;59.25;100878.75;4867235;29;45501;-49
2021/06/29 01:05:59;;;;;;;;;2.00;2.00;;;;;18.35;59.19;100874.25;4867621;29;45321;-46
2021/06/29 01:08:25;;;;;;;;;3.00;3.00;;;;;18.38;59.66;100875.00;4866985;29;45289;-47
2021/06/29 01:10:50;;;;;;;;;2.00;2.00;;;;;18.38;59.15;100877.66;4867440;29;45279;-48
2021/06/29 01:13:44;;;;;;;;;3.25;2.75;;;;;18.39;59.19;100868.75;4866880;29;45245;-49
2021/06/29 01:16:10;;;;;;;;;3.00;2.00;;;;;18.40;59.14;100876.69;4867414;29;45331;-51
2021/06/29 01:18:40;;;;;;;;;2.00;2.00;;;;;18.41;59.14;100875.75;4865997;29;45275;-48
2021/06/29 01:21:07;;;;;;;;;2.50;2.50;;;;;18.41;59.41;100877.56;4867018;29;45408;-48
2021/06/29 01:23:34;;;;;;;;;4.25;2.25;;;;;18.41;59.32;100872.22;4866241;29;45314;-48
2021/06/29 01:26:26;;;;;;;;;3.00;3.00;;;;;18.40;59.42;100875.81;4873383;29;45313;-49
2021/06/29 01:28:57;;;;;;;;;3.00;3.00;;;;;18.39;59.20;100868.75;4866856;29;45444;-52
2021/06/29 01:31:23;;;;;;;;;3.25;3.25;;;;;18.39;59.30;100868.75;4866876;29;46967;-48
2021/06/29 01:33:50;;;;;;;;;4.00;3.00;;;;;18.39;59.52;100880.28;4866820;29;45279;-48
2021/06/29 01:36:21;;;;;;;;;2.50;2.00;;;;;18.38;59.54;100867.91;4865893;29;45306;-47
2021/06/29 01:38:47;;;;;;;;;2.00;1.75;;;;;18.37;59.50;100862.66;4866730;29;45367;-49
2021/06/29 01:41:15;;;;;;;;;3.00;1.25;;;;;18.33;59.63;100857.47;4866897;29;45235;-49
2021/06/29 01:43:48;;;;;;;;;2.25;2.25;;;;;18.31;59.49;100859.34;4866499;29;45240;-47
2021/06/29 01:46:15;;;;;;;;;2.00;2.00;;;;;18.27;59.60;100848.91;4866907;29;45491;-46
2021/06/29 01:48:49;;;;;;;;;5.00;3.50;;;;;18.29;59.50;100863.03;4866644;29;45399;-48
2021/06/29 01:51:15;;;;;;;;;3.00;1.50;;;;;18.26;59.62;100852.50;4866545;29;45259;-49
2021/06/29 01:53:41;;;;;;;;;3.75;2.75;;;;;18.25;59.47;100854.31;4865081;29;45313;-49
2021/06/29 01:56:14;;;;;;;;;4.00;3.25;;;;;18.25;59.53;100856.97;4866910;29;45284;-49
2021/06/29 01:58:40;;;;;;;;;3.25;3.00;;;;;18.24;59.54;100849.03;4866262;29;45829;-50
2021/06/29 02:01:05;;;;;;;;;2.25;2.25;;;;;18.13;59.51;100829.09;4866507;29;46545;-49
2021/06/29 02:03:30;;;;;;;;;2.00;2.00;;;;;18.17;59.83;100843.13;4866307;29;45330;-46
2021/06/29 02:05:56;;;;;;;;;1.50;1.50;;;;;18.18;59.70;100847.53;4866734;29;45312;-49
2021/06/29 02:08:21;;;;;;;;;3.50;2.75;;;;;18.16;59.91;100847.59;4865951;29;45316;-51
2021/06/29 02:10:47;;;;;;;;;3.75;2.50;;;;;18.13;59.69;100847.72;4866591;29;45235;-49
2021/06/29 02:13:12;;;;;;;;;3.00;3.00;;;;;18.12;59.58;100850.44;4866100;29;45438;-49
2021/06/29 02:15:37;;;;;;;;;3.00;3.00;;;;;18.06;59.73;100851.56;4866661;29;45314;-47
2021/06/29 02:18:04;;;;;;;;;3.00;3.00;;;;;18.06;60.01;100856.88;4866171;29;45380;-50
2021/06/29 02:20:29;;;;;;;;;2.00;2.00;;;;;18.04;60.40;100856.13;4865101;29;47245;-46
2021/06/29 02:22:55;;;;;;;;;2.00;2.00;;;;;17.99;59.72;100842.16;4865861;29;45358;-51
2021/06/29 02:25:21;;;;;;;;;2.75;2.25;;;;;18.00;59.86;100846.56;4870076;29;45318;-46
2021/06/29 02:27:46;;;;;;;;;1.75;1.50;;;;;17.97;59.85;100841.34;4868720;29;45507;-52
2021/06/29 02:30:12;;;;;;;;;2.00;2.00;;;;;17.97;59.82;100844.00;4864779;29;46121;-50
2021/06/29 02:32:39;;;;;;;;;2.00;2.00;;;;;17.96;59.71;100850.25;4865950;29;45344;-48
2021/06/29 02:35:05;;;;;;;;;3.00;3.00;;;;;17.94;59.78;100846.81;4866054;29;45434;-47
2021/06/29 02:37:30;;;;;;;;;2.25;2.25;;;;;17.92;59.86;100848.63;4865731;29;45218;-48
2021/06/29 02:40:23;;;;;;;;;2.50;2.50;;;;;17.89;59.73;100844.31;4842816;29;46428;-47
2021/06/29 02:42:49;;;;;;;;;3.50;3.00;;;;;17.88;59.90;100845.22;4865857;29;45237;-48
2021/06/29 02:45:17;;;;;;;;;3.25;1.00;;;;;17.87;59.81;100836.41;4865984;29;45325;-52
2021/06/29 02:47:43;;;;;;;;;2.00;2.00;;;;;17.84;59.97;100836.53;4866096;29;45496;-49
2021/06/29 02:50:09;;;;;;;;;3.25;2.00;;;;;17.82;59.78;100833.09;4865705;29;45551;-49
2021/06/29 02:52:35;;;;;;;;;2.00;2.00;;;;;17.82;59.98;100837.53;4865708;29;45369;-47
2021/06/29 02:55:02;;;;;;;;;4.50;3.00;;;;;17.79;59.69;100827.88;4865759;29;45388;-49
2021/06/29 02:57:27;;;;;;;;;2.75;2.75;;;;;17.79;59.91;100832.34;4866034;29;45210;-48
2021/06/29 02:59:54;;;;;;;;;2.25;2.25;;;;;17.78;59.91;100820.84;4865435;29;46045;-49
2021/06/29 03:02:19;;;;;;;;;2.25;2.25;;;;;17.77;59.81;100823.56;4865708;29;45229;-51
2021/06/29 03:04:44;;;;;;;;;2.00;2.00;;;;;17.74;59.86;100811.28;4865745;29;45306;-48
2021/06/29 03:07:10;;;;;;;;;4.75;3.00;;;;;17.73;60.09;100814.00;4865877;29;45222;-47
2021/06/29 03:09:35;;;;;;;;;2.50;2.50;;;;;17.73;59.92;100821.97;4865280;29;45213;-51
2021/06/29 03:12:01;;;;;;;;;3.50;3.50;;;;;17.70;59.95;100813.19;4865487;29;45445;-49
2021/06/29 03:14:26;;;;;;;;;4.00;2.00;;;;;17.70;60.05;100812.34;4865674;29;45319;-49
2021/06/29 03:16:52;;;;;;;;;2.75;2.75;;;;;17.69;59.94;100810.63;4865725;29;45300;-47
2021/06/29 03:19:18;;;;;;;;;3.00;3.00;;;;;17.69;59.96;100805.31;4865383;29;46271;-47
2021/06/29 03:21:44;;;;;;;;;3.50;3.00;;;;;17.67;59.97;100804.50;4865631;29;45403;-50
2021/06/29 03:24:10;;;;;;;;;3.00;3.00;;;;;17.64;59.96;100794.88;4864158;29;45315;-50
2021/06/29 03:26:35;;;;;;;;;2.00;2.00;;;;;17.63;60.16;100792.28;4870298;29;45575;-48
2021/06/29 03:29:01;;;;;;;;;2.00;2.00;;;;;17.59;60.04;100788.88;4865206;29;46235;-47
2021/06/29 03:31:27;;;;;;;;;1.75;1.75;;;;;17.59;59.90;100796.84;4865446;29;45347;-49
2021/06/29 03:33:52;;;;;;;;;1.75;1.75;;;;;17.55;60.18;100789.97;4865512;29;45484;-49
2021/06/29 03:36:17;;;;;;;;;3.00;3.00;;;;;17.55;60.16;100797.94;4864157;29;45255;-48
2021/06/29 03:38:43;;;;;;;;;5.00;2.50;;;;;17.53;60.22;100791.81;4865031;29;45176;-48
2021/06/29 03:41:08;;;;;;;;;1.75;1.75;;;;;17.50;60.06;100800.75;4865447;29;45238;-51
2021/06/29 03:43:37;;;;;;;;;2.00;2.00;;;;;17.44;60.10;100792.19;4865201;29;45478;-51
2021/06/29 03:46:04;;;;;;;;;2.50;1.75;;;;;17.46;60.14;100795.63;4865386;29;45375;-49
2021/06/29 03:48:29;;;;;;;;;3.00;3.00;;;;;17.47;60.03;100798.25;4867513;29;45264;-48
2021/06/29 03:50:54;;;;;;;;;2.00;2.00;;;;;17.46;60.28;100800.94;4868288;29;45310;-46
2021/06/29 03:53:20;;;;;;;;;2.00;1.75;;;;;17.45;59.92;100792.13;4868266;29;45429;-51
2021/06/29 03:55:45;;;;;;;;;3.25;3.25;;;;;17.45;60.21;100794.78;4867243;29;45391;-47
2021/06/29 03:58:10;;;;;;;;;2.00;2.00;;;;;17.45;60.07;100794.78;4868184;29;46439;-47
2021/06/29 04:00:36;;;;;;;;;2.00;2.00;;;;;17.47;60.06;100798.25;4868237;29;45301;-49
2021/06/29 04:03:02;;;;;;;;;2.75;1.75;;;;;17.48;60.29;100799.09;4868332;29;45258;-51
2021/06/29 04:05:27;;;;;;;;;2.00;2.00;;;;;17.48;60.11;100797.34;4868486;29;45347;-51
2021/06/29 04:07:52;;;;;;;;;2.50;2.50;;;;;17.49;60.14;100788.41;4867733;29;45241;-49
2021/06/29 04:10:18;;;;;;;;;2.00;2.00;;;;;17.48;60.15;100797.34;4868074;29;45293;-51
2021/06/29 04:12:43;;;;;;;;;2.00;2.00;;;;;17.47;60.14;100800.91;4868068;29;45202;-47
2021/06/29 04:15:10;;;;;;;;;2.00;2.00;;;;;17.46;60.33;100799.19;4868327;29;45484;-48
2021/06/29 04:17:35;;;;;;;;;2.00;2.00;;;;;17.45;60.27;100793.94;4868039;29;45369;-50
2021/06/29 04:20:01;;;;;;;;;2.00;2.00;;;;;17.47;60.35;100789.41;4868035;29;45503;-50
2021/06/29 04:22:26;;;;;;;;;1.00;1.00;;;;;17.47;60.37;100792.06;4868048;29;45354;-47
2021/06/29 04:24:52;;;;;;;;;3.25;2.00;;;;;17.47;60.41;100792.94;4868074;29;45233;-51
2021/06/29 04:27:21;;;;;;;;;2.00;2.00;;;;;17.45;60.41;100793.94;4867866;29;45428;-53
2021/06/29 04:29:47;;;;;;;;;2.00;2.00;;;;;17.46;60.51;100793.88;4868271;29;45249;-52
2021/06/29 04:32:12;;;;;;;;;3.00;2.00;;;;;17.47;60.17;100798.25;4867747;29;45217;-52
2021/06/29 04:34:37;;;;;;;;;3.00;3.00;;;;;17.47;60.41;100800.03;4868195;29;45230;-53
2021/06/29 04:37:03;;;;;;;;;2.25;2.00;;;;;17.49;60.32;100801.69;4866435;29;45982;-49
2021/06/29 04:39:28;;;;;;;;;4.25;4.25;;;;;17.51;60.19;100791.03;4867818;29;45145;-46
2021/06/29 04:41:54;;;;;;;;;5.00;2.50;;;;;17.52;60.11;100788.28;4867656;29;45498;-49
2021/06/29 04:44:19;;;;;;;;;2.50;2.00;;;;;17.54;60.51;100785.56;4867822;29;45240;-47
2021/06/29 04:46:49;;;;;;;;;4.00;3.00;;;;;17.51;60.06;100783.06;4867521;29;45230;-51
2021/06/29 04:49:14;;;;;;;;;3.00;3.00;;;;;17.58;60.38;100781.00;4866601;29;45501;-47
2021/06/29 04:51:39;;;;;;;;;5.00;2.50;;;;;17.58;60.39;100781.84;4867362;29;45330;-47
2021/06/29 04:54:05;;;;;;;;;2.25;2.00;;;;;17.60;60.27;100785.31;4867644;29;45317;-48
2021/06/29 04:56:30;;;;;;;;;3.00;3.00;;;;;17.62;60.31;100790.53;4867463;29;46295;-47
2021/06/29 04:58:57;;;;;;;;;3.75;3.00;;;;;17.62;60.19;100788.78;4866274;29;45324;-50
2021/06/29 05:01:23;;;;;;;;;4.75;2.75;;;;;17.63;60.30;100787.81;4858018;29;45478;-52
2021/06/29 05:03:49;;;;;;;;;3.75;3.75;;;;;17.65;60.43;100787.78;4859717;29;45521;-56
2021/06/29 05:06:18;;;;;;;;;5.50;4.00;;;;;17.66;60.50;100786.81;4866452;29;46094;-52
2021/06/29 05:08:44;;;;;;;;;3.00;3.00;;;;;17.69;60.54;100792.88;4858524;29;45572;-57
2021/06/29 05:11:10;;;;;;;;;5.00;3.50;;;;;17.73;60.39;100788.28;4864555;29;45305;-57
2021/06/29 05:13:35;;;;;;;;;4.00;4.00;;;;;17.75;60.47;100796.19;4866782;29;45435;-55
2021/06/29 05:16:01;;;;;;;;;4.25;4.25;;;;;17.78;60.43;100799.56;4866618;29;47426;-52
2021/06/29 05:18:26;;;;;;;;;3.00;3.00;;;;;17.80;60.51;100810.16;4865273;29;45388;-54
2021/06/29 05:20:52;;;;;;;;;5.75;4.00;;;;;17.73;60.38;100796.25;4858979;29;45469;-56
2021/06/29 05:23:17;;;;;;;;;4.50;4.25;;;;;17.84;60.63;100812.59;4860601;29;45455;-49
2021/06/29 05:25:43;;;;;;;;;5.25;3.75;;;;;17.82;60.45;100809.16;4860536;29;45288;-55
2021/06/29 05:28:08;;;;;;;;;4.75;3.25;;;;;17.87;60.50;100815.16;4864855;29;45176;-54
2021/06/29 05:30:33;;;;;;;;;5.50;4.50;;;;;17.91;60.51;100815.00;4860669;29;45447;-56
2021/06/29 05:32:59;;;;;;;;;4.75;4.75;;;;;17.91;60.54;100821.19;4849951;29;45559;-52
2021/06/29 05:35:27;;;;;;;;;3.25;2.00;;;;;17.92;60.50;100812.25;4856300;29;45237;-53
2021/06/29 05:37:52;;;;;;;;;5.00;3.25;;;;;17.97;60.52;100814.75;4853483;29;45407;-52
2021/06/29 05:40:18;;;;;;;;;3.25;3.25;;;;;17.98;60.58;100813.84;4866942;29;45404;-51
2021/06/29 05:42:43;;;;;;;;;3.50;3.50;;;;;17.97;60.52;100809.44;4866482;29;45320;-54
2021/06/29 05:45:12;;;;;;;;;3.50;3.50;;;;;18.06;60.45;100829.44;4866275;29;45322;-55
2021/06/29 05:47:38;;;;;;;;;4.00;4.00;;;;;18.09;60.43;100832.00;4865151;29;45281;-51
2021/06/29 05:50:05;;;;;;;;;2.00;2.00;;;;;18.11;60.50;100832.75;4866219;29;45246;-51
2021/06/29 05:52:30;;;;;;;;;2.25;2.25;;;;;18.14;59.88;100828.19;4866365;29;45269;-48
2021/06/29 05:54:56;;;;;;;;;3.00;2.75;;;;;18.16;60.54;100828.09;4865947;29;45835;-48
2021/06/29 05:57:21;;;;;;;;;3.00;2.25;;;;;18.20;60.34;100832.38;4866359;29;45431;-49
2021/06/29 05:59:47;;;;;;;;;2.00;2.00;;;;;18.24;60.29;100833.97;4866389;29;45500;-51
2021/06/29 06:02:12;;;;;;;;;5.50;2.00;;;;;18.26;60.41;100832.06;4865889;29;45332;-49
2021/06/29 06:04:39;;;;;;;;;3.50;3.50;;;;;18.26;60.38;100837.38;4864897;29;46234;-50
2021/06/29 06:07:05;;;;;;;;;3.00;3.00;;;;;18.28;60.40;100842.66;4866372;29;45375;-50
2021/06/29 06:09:31;;;;;;;;;4.50;3.00;;;;;18.29;60.58;100847.91;4861755;29;45509;-53
2021/06/29 06:11:56;;;;;;;;;3.75;3.75;;;;;18.32;60.57;100846.91;4864602;29;45242;-49
2021/06/29 06:14:22;;;;;;;;;3.25;3.25;;;;;18.34;60.48;100845.91;4864702;29;45485;-50
2021/06/29 06:16:47;;;;;;;;;5.50;3.75;;;;;18.35;60.45;100847.63;4865095;29;45359;-48
2021/06/29 06:19:12;;;;;;;;;4.00;4.00;;;;;18.35;60.40;100846.75;4865334;29;45158;-51
2021/06/29 06:21:38;;;;;;;;;3.00;2.00;;;;;18.34;60.32;100847.72;4864731;29;45221;-57
2021/06/29 06:24:04;;;;;;;;;2.50;2.50;;;;;18.34;60.65;100851.22;4865729;29;45634;-57
2021/06/29 06:26:29;;;;;;;;;4.00;4.00;;;;;18.35;60.43;100852.97;4870336;29;45410;-53
2021/06/29 06:28:54;;;;;;;;;4.00;3.25;;;;;18.36;60.36;100856.47;4865486;29;45317;-53
2021/06/29 06:31:20;;;;;;;;;4.00;4.00;;;;;18.37;60.30;100844.06;4865244;29;45705;-54
2021/06/29 06:33:45;;;;;;;;;2.50;2.50;;;;;18.36;60.51;100853.81;4865735;29;45932;-53
2021/06/29 06:36:11;;;;;;;;;4.75;4.75;;;;;18.38;60.57;100848.41;4865474;29;45431;-50
2021/06/29 06:38:36;;;;;;;;;5.00;5.00;;;;;18.38;60.74;100848.41;4865412;29;45517;-51
2021/06/29 06:41:02;;;;;;;;;4.25;4.00;;;;;18.38;60.53;100851.06;4865657;29;45256;-51
2021/06/29 06:43:27;;;;;;;;;9.25;5.25;;;;;18.37;60.53;100854.69;4865564;29;45625;-52
2021/06/29 06:45:53;;;;;;;;;5.00;5.00;;;;;18.35;60.55;100846.75;4864742;29;45455;-52
2021/06/29 06:48:18;;;;;;;;;6.75;5.00;;;;;18.34;60.89;100851.22;4864709;29;45744;-52
2021/06/29 06:50:44;;;;;;;;;6.50;6.25;;;;;18.35;60.79;100849.41;4864572;29;45594;-50
2021/06/29 06:53:09;;;;;;;;;4.25;4.25;;;;;18.36;60.67;100848.47;4863919;29;46118;-51
2021/06/29 06:55:35;;;;;;;;;7.00;6.00;;;;;18.37;60.87;100852.03;4864635;29;45524;-51
2021/06/29 06:58:00;;;;;;;;;6.50;5.00;;;;;18.38;60.99;100859.06;4864040;29;45404;-49
2021/06/29 07:00:26;;;;;;;;;7.00;6.25;;;;;18.35;60.78;100852.97;4868311;29;45350;-50
2021/06/29 07:02:55;;;;;;;;;7.00;7.00;;;;;18.38;61.10;100853.72;4865272;29;46175;-49
2021/06/29 07:05:21;;;;;;;;;5.25;4.50;;;;;18.38;60.94;100857.28;4865041;29;45230;-53
2021/06/29 07:07:46;;;;;;;;;7.25;6.75;;;;;18.39;60.94;100866.09;4865387;29;45320;-52
2021/06/29 07:10:12;;;;;;;;;5.00;5.00;;;;;18.37;60.97;100850.22;4855413;29;45628;-49
2021/06/29 07:12:38;;;;;;;;;6.75;5.75;;;;;18.40;60.84;100855.41;4865176;29;46126;-51
2021/06/29 07:15:04;;;;;;;;;7.00;6.00;;;;;18.41;61.08;100864.25;4864714;29;45326;-52
2021/06/29 07:17:30;;;;;;;;;4.50;4.00;;;;;18.42;61.21;100864.19;4865416;29;45497;-51
2021/06/29 07:19:55;;;;;;;;;7.75;7.75;;;;;18.43;60.86;100865.91;4864857;29;45677;-52
2021/06/29 07:22:20;;;;;;;;;7.75;5.00;;;;;18.44;60.96;100864.97;4865891;29;46001;-51
2021/06/29 07:24:47;;;;;;;;;0.25;0.25;;;;;18.43;61.32;100870.38;4868209;29;45269;-51
2021/06/29 07:27:12;;;;;;;;;5.50;5.25;;;;;18.40;61.44;100866.06;4867375;29;45191;-53
2021/06/29 07:29:38;;;;;;;;;6.00;5.50;;;;;18.39;61.29;100876.75;4868200;29;45414;-51
2021/06/29 07:32:04;;;;;;;;;10.25;8.00;;;;;18.38;61.29;100872.34;4866890;29;47279;-52
2021/06/29 07:34:30;;;;;;;;;10.00;7.50;;;;;18.37;61.14;100871.50;4868103;29;45236;-52
2021/06/29 07:36:55;;;;;;;;;7.00;7.00;;;;;18.40;61.53;100873.16;4868127;29;45306;-52
2021/06/29 07:39:22;;;;;;;;;9.50;5.75;;;;;18.40;61.28;100867.84;4867941;29;45351;-51
2021/06/29 07:41:47;;;;;;;;;6.50;6.50;;;;;18.42;61.58;100872.16;4866520;29;47965;-53
2021/06/29 07:44:12;;;;;;;;;8.00;8.00;;;;;18.44;61.50;100872.97;4868164;29;45544;-50
2021/06/29 07:46:38;;;;;;;;;6.75;6.25;;;;;18.46;61.76;100880.88;4867893;29;45407;-52
2021/06/29 07:49:04;;;;;;;;;8.00;6.50;;;;;18.49;61.18;100875.44;4866845;29;45432;-52
2021/06/29 07:51:30;;;;;;;;;9.75;8.00;;;;;18.50;61.75;100870.03;4867828;29;45335;-53
2021/06/29 07:53:55;;;;;;;;;8.50;7.50;;;;;18.52;62.03;100873.47;4867792;29;45569;-51
2021/06/29 07:56:20;;;;;;;;;9.25;9.25;;;;;18.52;62.12;100878.78;4868182;29;45301;-53
2021/06/29 07:58:46;;;;;;;;;6.75;5.25;;;;;18.54;62.01;100876.06;4867977;29;45399;-52
2021/06/29 08:01:13;;;;;;;;;7.00;5.25;;;;;18.56;62.24;100878.66;4868820;29;46092;-51
2021/06/29 08:03:39;;;;;;;;;7.25;6.00;;;;;18.57;62.26;100875.94;4864532;29;45232;-51
2021/06/29 08:06:05;;;;;;;;;3.50;3.25;;;;;18.59;62.15;100879.38;4868293;29;45177;-54
2021/06/29 08:08:30;;;;;;;;;4.25;4.25;;;;;18.61;62.29;100874.84;4868187;29;45258;-53
2021/06/29 08:11:01;;;;;;;;;8.00;7.25;;;;;18.65;62.07;100876.44;4868144;29;45416;-52
2021/06/29 08:13:26;;;;;;;;;6.75;6.75;;;;;18.67;61.89;100876.38;4867567;29;45195;-51
2021/06/29 08:15:52;;;;;;;;;8.00;8.00;;;;;18.68;62.32;100875.44;4867953;29;45168;-53
2021/06/29 08:18:17;;;;;;;;;5.25;5.00;;;;;18.73;61.75;100881.41;4867849;29;45506;-52
2021/06/29 08:20:44;;;;;;;;;5.25;5.00;;;;;18.72;62.40;100869.03;4867802;29;45942;-52
2021/06/29 08:23:09;;;;;;;;;6.00;6.00;;;;;18.80;62.07;100884.66;4867579;29;45262;-53
2021/06/29 08:25:35;;;;;;;;;7.75;6.75;;;;;18.82;61.87;100886.31;4868000;29;45281;-51
2021/06/29 08:28:01;;;;;;;;;5.00;4.00;;;;;18.88;61.94;100881.63;4864078;29;45247;-49
2021/06/29 08:30:27;;;;;;;;;6.00;6.00;;;;;18.90;62.16;100882.44;4866252;29;47641;-53
2021/06/29 08:32:53;;;;;;;;;4.25;4.25;;;;;18.91;61.90;100882.38;4863432;29;45286;-53
2021/06/29 08:35:18;;;;;;;;;7.25;5.25;;;;;18.98;62.22;100883.81;4867596;29;45395;-51
2021/06/29 08:37:44;;;;;;;;;7.75;5.75;;;;;19.00;62.03;100881.97;4864187;29;45327;-52
2021/06/29 08:40:11;;;;;;;;;8.25;6.50;;;;;19.03;62.43;100880.97;4867514;29;47084;-50
2021/06/29 08:42:37;;;;;;;;;6.25;5.75;;;;;19.07;62.18;100881.66;4867533;29;45524;-53
2021/06/29 08:45:11;;;;;;;;;5.75;5.75;;;;;19.09;62.16;100880.63;4867533;29;45300;-50
2021/06/29 08:47:38;;;;;;;;;7.50;6.25;;;;;19.13;62.36;100876.91;4866459;29;45284;-54
2021/06/29 08:50:06;;;;;;;;;6.50;6.25;;;;;19.16;62.23;100881.22;4867551;29;45370;-51
2021/06/29 08:52:33;;;;;;;;;6.00;5.75;;;;;19.16;62.37;100879.41;4867073;29;45436;-52
2021/06/29 08:54:59;;;;;;;;;6.50;5.00;;;;;19.20;62.33;100873.94;4867561;29;45481;-51
2021/06/29 08:57:24;;;;;;;;;3.00;3.00;;;;;19.23;62.25;100877.34;4867503;29;45317;-53
2021/06/29 08:59:49;;;;;;;;;2.00;2.00;;;;;19.24;62.15;100872.84;4867120;29;45317;-50
2021/06/29 09:02:17;;;;;;;;;3.25;2.75;;;;;19.24;61.81;100867.53;4866965;29;45471;-53
2021/06/29 09:04:44;;;;;;;;;3.75;2.50;;;;;19.24;61.92;100875.53;4863149;29;45256;-53
2021/06/29 09:07:22;;;;;;;;;4.00;2.50;;;;;19.25;61.87;100874.59;4867544;29;45411;-53
2021/06/29 09:09:55;;;;;;;;;3.00;3.00;;;;;19.25;61.64;100879.91;4866273;29;47014;-50
2021/06/29 09:12:44;;;;;;;;;5.25;4.00;;;;;19.24;61.50;100879.03;4867193;29;45288;-49
2021/06/29 09:15:28;;;;;;;;;4.50;3.00;;;;;19.24;61.51;100878.19;4867099;29;45333;-52
2021/06/29 09:17:57;;;;;;;;;2.50;2.50;;;;;19.24;60.94;100883.50;4867231;29;45852;-52
2021/06/29 09:20:31;;;;;;;;;2.00;2.00;;;;;19.22;60.98;100874.72;4854913;29;46197;-49
2021/06/29 09:23:16;;;;;;;;;3.25;3.00;;;;;19.27;61.06;100873.56;4866703;29;45397;-50
2021/06/29 09:25:44;;;;;;;;;3.75;2.75;;;;;19.28;61.30;100872.66;4867290;29;45395;-54
2021/06/29 09:28:15;;;;;;;;;2.00;2.00;;;;;19.33;61.44;100878.59;4866989;29;45220;-48
2021/06/29 09:30:47;;;;;;;;;5.00;4.00;;;;;19.38;61.09;100869.53;4865265;29;48318;-54
2021/06/29 09:33:35;;;;;;;;;3.00;2.75;;;;;19.44;60.77;100870.06;4866740;29;45443;-54
2021/06/29 09:36:03;;;;;;;;;2.00;2.00;;;;;19.51;60.64;100875.97;4866928;29;45390;-50
2021/06/29 09:38:37;;;;;;;;;2.00;2.00;;;;;19.58;61.15;100865.88;4866845;29;45447;-53
2021/06/29 09:41:09;;;;;;;;;1.00;1.00;;;;;19.67;60.65;100870.72;4864323;29;46517;-51
2021/06/29 09:43:44;;;;;;;;;3.00;2.25;;;;;19.76;61.07;100859.63;4866956;29;45483;-54
2021/06/29 09:46:12;;;;;;;;;2.50;2.50;;;;;19.86;60.68;100865.38;4865970;29;45337;-53
2021/06/29 09:48:56;;;;;;;;;2.00;2.00;;;;;19.95;60.58;100866.72;4866371;29;45254;-53
2021/06/29 09:51:31;;;;;;;;;2.00;2.00;;;;;20.04;60.71;100868.03;4866416;29;46986;-52
2021/06/29 09:54:08;;;;;;;;;1.00;1.00;;;;;20.12;60.40;100866.69;4866332;29;45225;-48
2021/06/29 09:56:40;;;;;;;;;1.00;1.00;;;;;20.21;60.31;100869.81;4866533;29;45347;-53
2021/06/29 09:59:15;;;;;;;;;0.00;0.00;;;;;20.29;59.91;100859.59;4866447;29;45253;-53
2021/06/29 10:01:41;;;;;;;;;2.00;0.75;;;;;20.41;59.87;100869.59;4861192;29;46150;-53
2021/06/29 10:04:07;;;;;;;;;1.50;0.50;;;;;20.46;59.50;100859.56;4863119;29;45267;-52
2021/06/29 10:06:35;;;;;;;;;1.00;1.00;;;;;20.55;59.50;100854.66;4865144;29;45277;-50
2021/06/29 10:09:10;;;;;;;;;1.00;1.00;;;;;20.64;59.05;100867.53;4874626;29;45475;-53
2021/06/29 10:11:39;;;;;;;;;1.00;1.00;;;;;20.72;58.94;100867.13;4865224;29;45629;-54
2021/06/29 10:14:18;;;;;;;;;1.00;1.00;;;;;20.75;58.82;100857.16;4869438;29;45368;-53
2021/06/29 10:16:49;;;;;;;;;1.00;1.00;;;;;20.85;58.24;100861.97;4862761;29;45295;-53
2021/06/29 10:21:55;;;;;;;;;1.00;1.00;;;;;21.00;57.71;100858.44;4865857;29;45285;-51
2021/06/29 10:24:24;;;;;;;;;0.00;0.00;;;;;21.06;57.91;100858.09;4865629;29;45366;-53
2021/06/29 10:26:53;;;;;;;;;2.50;1.00;;;;;21.13;57.36;100861.31;4866048;29;45358;-51
2021/06/29 10:29:20;;;;;;;;;3.00;1.75;;;;;21.18;57.54;100861.91;4865689;29;45499;-51
2021/06/29 10:31:48;;;;;;;;;6.75;5.00;;;;;21.23;57.63;100853.59;4865849;29;45269;-52
2021/06/29 10:34:15;;;;;;;;;1.00;1.00;;;;;21.25;56.87;100846.38;4865889;29;45335;-53
2021/06/29 10:36:43;;;;;;;;;2.75;2.00;;;;;21.29;56.72;100847.91;4862382;29;45284;-53
2021/06/29 10:39:12;;;;;;;;;3.25;2.50;;;;;21.32;57.08;100842.41;4865654;29;45185;-51
2021/06/29 10:41:43;;;;;;;;;1.75;1.75;;;;;21.36;56.99;100833.25;4865866;29;46171;-54
2021/06/29 10:44:15;;;;;;;;;1.00;1.00;;;;;21.41;56.75;100833.84;4861147;29;45219;-49
2021/06/29 10:46:48;;;;;;;;;1.00;1.00;;;;;21.47;57.18;100835.31;4866156;29;45392;-51
2021/06/29 10:49:30;;;;;;;;;2.00;2.00;;;;;21.54;56.93;100835.78;4865849;29;45533;-53
2021/06/29 10:52:22;;;;;;;;;0.00;0.00;;;;;21.56;56.76;100840.13;4865306;29;46479;-52
2021/06/29 10:54:51;;;;;;;;;2.25;1.00;;;;;21.57;56.05;100841.84;4862859;29;45395;-50
2021/06/29 10:57:20;;;;;;;;;4.00;1.75;;;;;21.60;56.23;100838.13;4865053;29;45420;-51
2021/06/29 10:59:49;;;;;;;;;1.00;1.00;;;;;21.64;55.95;100838.81;4866703;29;45341;-53
2021/06/29 11:02:33;;;;;;;;;1.00;1.00;;;;;21.67;56.46;100842.19;4876728;29;47006;-51
2021/06/29 11:05:00;;;;;;;;;3.00;1.00;;;;;21.69;56.14;100837.59;4871835;29;45241;-52
2021/06/29 11:07:26;;;;;;;;;1.75;1.75;;;;;21.72;56.35;100836.53;4865281;29;45262;-52
2021/06/29 11:09:53;;;;;;;;;1.00;1.00;;;;;21.75;56.07;100841.72;4873146;29;45486;-52
2021/06/29 11:12:24;;;;;;;;;1.00;1.00;;;;;21.76;55.79;100838.09;4865611;29;45351;-52
2021/06/29 11:14:52;;;;;;;;;3.00;3.00;;;;;21.76;55.60;100835.41;4865002;29;45298;-52
2021/06/29 11:17:20;;;;;;;;;0.25;0.25;;;;;21.76;55.67;100832.75;4863943;29;45304;-52
2021/06/29 11:20:00;;;;;;;;;0.25;0.25;;;;;21.79;55.57;100834.38;4863424;29;45415;-51
2021/06/29 11:22:59;;;;;;;;;1.75;1.75;;;;;21.80;55.35;100847.66;4864673;29;45289;-53
2021/06/29 11:25:42;;;;;;;;;1.25;1.25;;;;;21.80;54.83;100836.94;4865316;29;45345;-50
2021/06/29 11:28:43;;;;;;;;;1.75;1.75;;;;;21.81;55.20;100849.38;4865261;29;45389;-53